Time;durP1;ratioP1;P1;durP2;ratioP2;P2;SDS_P1;SDS_P2;PMS_P1;PMS_P2;Temp;Humidity;BMP_temperature;BMP_pressure;BME280_temperature;BME280_humidity;BME280_pressure;Samples;Min_cycle;Max_cycle;Signal;HPM_P1;HPM_P2
2023/12/15 00:01:22;;;;;;;17.05;12.60;;;;;;;7.43;96.08;102500.06;3607024;39;20050;-63
2023/12/15 00:03:47;;;;;;;18.90;13.52;;;;;;;7.46;96.67;102500.00;3607607;39;20085;-63
2023/12/15 00:06:13;;;;;;;18.75;14.05;;;;;;;7.44;96.59;102501.81;3608044;39;20059;-63
2023/12/15 00:08:38;;;;;;;21.38;13.70;;;;;;;7.46;97.06;102505.38;3609746;39;20047;-64
2023/12/15 00:11:04;;;;;;;22.77;17.17;;;;;;;7.46;97.12;102509.84;3608158;39;20405;-63
2023/12/15 00:13:30;;;;;;;23.27;15.02;;;;;;;7.45;96.87;102514.28;3609033;39;20112;-64
2023/12/15 00:15:55;;;;;;;37.67;26.80;;;;;;;7.46;97.86;102516.06;3610069;39;20380;-63
2023/12/15 00:18:21;;;;;;;26.67;18.25;;;;;;;7.46;97.77;102524.09;3608819;39;20062;-64
2023/12/15 00:20:47;;;;;;;22.67;15.52;;;;;;;7.41;97.41;102526.84;3609190;39;20057;-64
2023/12/15 00:23:13;;;;;;;23.80;14.77;;;;;;;7.47;97.18;102533.00;3609988;39;20047;-64
2023/12/15 00:25:39;;;;;;;21.05;15.68;;;;;;;7.48;98.08;102530.28;3608388;39;20051;-64
2023/12/15 00:28:05;;;;;;;23.33;16.05;;;;;;;7.48;97.71;102530.28;3606862;39;20116;-64
2023/12/15 00:30:31;;;;;;;22.52;16.95;;;;;;;7.42;97.52;102515.25;3607229;39;20062;-64
2023/12/15 00:32:57;;;;;;;22.55;16.38;;;;;;;7.48;98.31;102530.28;3605647;39;20124;-63
2023/12/15 00:35:22;;;;;;;24.75;17.80;;;;;;;7.50;97.60;102527.59;3610142;39;20078;-63
2023/12/15 00:37:48;;;;;;;24.42;17.65;;;;;;;6.57;98.22;102365.53;3610739;39;20047;-64
2023/12/15 00:40:14;;;;;;;26.80;16.73;;;;;;;7.45;97.79;102511.59;3608718;39;20419;-66
2023/12/15 00:42:40;;;;;;;25.25;16.70;;;;;;;7.49;97.81;102518.69;3607918;39;20049;-64
2023/12/15 00:45:06;;;;;;;26.13;17.20;;;;;;;7.52;98.27;102526.63;3605155;39;20055;-64
2023/12/15 00:47:32;;;;;;;25.80;17.80;;;;;;;7.52;98.56;102532.00;3606721;39;20042;-63
2023/12/15 00:49:59;;;;;;;22.90;17.52;;;;;;;7.56;97.91;102536.34;3610797;39;20074;-64
2023/12/15 00:52:25;;;;;;;24.83;17.95;;;;;;;7.56;97.87;102533.69;3610422;39;20390;-64
2023/12/15 00:54:51;;;;;;;23.75;17.70;;;;;;;7.56;98.33;102539.03;3602856;39;20059;-64
2023/12/15 00:57:16;;;;;;;29.23;17.75;;;;;;;7.55;98.30;102531.91;3609536;39;20058;-63
2023/12/15 00:59:43;;;;;;;27.30;18.30;;;;;;;7.49;98.00;102517.81;3608051;39;20124;-64
2023/12/15 01:02:09;;;;;;;26.90;18.65;;;;;;;7.57;98.31;102538.09;3607151;39;20042;-63
2023/12/15 01:04:35;;;;;;;25.17;18.73;;;;;;;7.59;98.51;102546.13;3610978;39;20054;-63
2023/12/15 01:07:01;;;;;;;29.23;19.27;;;;;;;7.53;98.25;102536.41;3608522;39;20050;-63
2023/12/15 01:09:27;;;;;;;25.83;17.95;;;;;;;7.62;99.23;102560.31;3606325;39;20091;-64
2023/12/15 01:11:56;;;;;;;28.60;19.40;;;;;;;7.52;98.93;102542.69;3605144;39;20403;-63
2023/12/15 01:14:22;;;;;;;30.73;20.10;;;;;;;7.62;98.88;102554.94;3605534;39;20128;-65
2023/12/15 01:16:49;;;;;;;32.00;19.00;;;;;;;7.61;98.74;102555.88;3607646;39;20315;-63
2023/12/15 01:19:17;;;;;;;24.60;18.98;;;;;;;7.62;99.01;102565.66;3607900;39;20059;-63
2023/12/15 01:21:44;;;;;;;26.88;19.23;;;;;;;7.63;99.45;102567.41;3608331;39;20050;-63
2023/12/15 01:24:11;;;;;;;26.58;18.70;;;;;;;7.63;98.97;102566.53;3607841;39;20055;-64
2023/12/15 01:26:37;;;;;;;25.63;18.35;;;;;;;7.64;98.77;102576.31;3607013;39;20058;-64
2023/12/15 01:29:04;;;;;;;28.42;18.70;;;;;;;7.63;99.41;102574.56;3607864;39;20051;-63
2023/12/15 01:31:30;;;;;;;24.73;18.33;;;;;;;7.62;98.96;102568.34;3608119;39;20067;-64
2023/12/15 01:33:56;;;;;;;26.95;19.30;;;;;;;7.63;99.81;102572.75;3601312;39;20055;-63
2023/12/15 01:36:22;;;;;;;27.45;18.75;;;;;;;7.64;99.17;102574.53;3606503;39;20078;-63
2023/12/15 01:38:48;;;;;;;26.20;19.13;;;;;;;7.65;99.21;102573.63;3610294;39;20062;-63
2023/12/15 01:41:13;;;;;;;26.80;18.92;;;;;;;7.65;99.52;102581.66;3609206;39;20047;-64
2023/12/15 01:43:39;;;;;;;25.40;18.58;;;;;;;7.65;99.84;102578.97;3608042;39;20047;-63
2023/12/15 01:46:05;;;;;;;25.20;18.42;;;;;;;7.57;99.64;102566.66;3608589;39;20331;-63
2023/12/15 01:48:31;;;;;;;22.80;18.40;;;;;;;7.65;100.00;102575.41;3607777;39;20046;-64
2023/12/15 01:50:57;;;;;;;25.83;19.10;;;;;;;7.66;99.61;102580.72;3612813;39;20047;-63
2023/12/15 01:53:22;;;;;;;25.13;19.13;;;;;;;7.67;100.00;102579.84;3612841;39;20078;-64
2023/12/15 01:55:48;;;;;;;24.80;18.45;;;;;;;7.68;99.67;102584.25;3610077;39;20061;-63
2023/12/15 01:58:14;;;;;;;22.90;17.58;;;;;;;7.62;99.89;102599.56;3608637;39;20042;-64
2023/12/15 02:00:40;;;;;;;26.27;18.42;;;;;;;7.63;100.00;102594.16;3608308;39;20058;-64
2023/12/15 02:03:06;;;;;;;22.20;18.02;;;;;;;7.60;100.00;102588.88;3606297;39;20128;-64
2023/12/15 02:05:32;;;;;;;21.95;17.80;;;;;;;7.70;100.00;102605.63;3608132;39;20090;-63
2023/12/15 02:07:59;;;;;;;22.38;17.42;;;;;;;7.71;100.00;102601.16;3602660;39;20050;-63
2023/12/15 02:10:25;;;;;;;21.98;17.65;;;;;;;7.72;100.00;102602.94;3609067;39;20059;-63
2023/12/15 02:12:51;;;;;;;25.33;19.13;;;;;;;7.47;100.00;102571.34;3607432;39;20053;-63
2023/12/15 02:15:18;;;;;;;24.55;18.42;;;;;;;7.64;100.00;102592.38;3607267;39;20051;-64
2023/12/15 02:17:43;;;;;;;24.20;18.33;;;;;;;7.75;100.00;102613.56;3604564;39;20079;-64
2023/12/15 02:20:09;;;;;;;21.88;17.50;;;;;;;7.76;100.00;102610.84;3605827;39;20066;-64
2023/12/15 02:22:35;;;;;;;24.27;18.95;;;;;;;7.61;99.96;102577.28;3609778;39;20058;-64
2023/12/15 02:25:01;;;;;;;24.48;18.88;;;;;;;7.76;100.00;102607.31;3606997;39;20082;-63
2023/12/15 02:27:26;;;;;;;22.35;18.65;;;;;;;7.79;100.00;102615.28;3607279;39;20063;-63
2023/12/15 02:29:52;;;;;;;23.40;18.45;;;;;;;7.78;100.00;102613.50;3608802;39;20387;-63
2023/12/15 02:32:18;;;;;;;23.92;19.38;;;;;;;7.77;100.00;102618.00;3606207;39;20062;-64
2023/12/15 02:34:43;;;;;;;24.98;19.25;;;;;;;7.78;100.00;102629.56;3608085;39;20081;-63
2023/12/15 02:37:09;;;;;;;26.30;20.02;;;;;;;7.79;100.00;102634.00;3607932;39;20124;-63
2023/12/15 02:39:38;;;;;;;25.92;19.13;;;;;;;7.78;100.00;102640.28;3608683;39;20043;-64
2023/12/15 02:42:04;;;;;;;27.98;20.73;;;;;;;7.78;100.00;102642.97;3606065;39;20047;-64
2023/12/15 02:44:30;;;;;;;25.77;19.75;;;;;;;7.79;100.00;102647.38;3610398;39;20058;-65
2023/12/15 02:46:56;;;;;;;27.85;19.90;;;;;;;7.81;100.00;102645.56;3609974;39;20059;-64
2023/12/15 02:49:21;;;;;;;29.95;20.13;;;;;;;7.79;100.00;102648.28;3608257;39;20328;-64
2023/12/15 02:51:47;;;;;;;32.10;20.92;;;;;;;7.82;100.00;102648.22;3606250;39;20067;-63
2023/12/15 02:54:12;;;;;;;29.92;21.25;;;;;;;7.83;100.00;102644.63;3607198;39;20063;-63
2023/12/15 02:56:38;;;;;;;27.13;19.88;;;;;;;7.83;100.00;102654.44;3608753;39;20054;-63
2023/12/15 02:59:04;;;;;;;28.25;20.50;;;;;;;7.83;100.00;102650.00;3608319;39;20407;-63
2023/12/15 03:01:29;;;;;;;26.45;20.17;;;;;;;7.84;100.00;102654.41;3607586;39;20052;-63
2023/12/15 03:03:55;;;;;;;27.73;20.58;;;;;;;7.85;100.00;102666.00;3610796;39;20077;-63
2023/12/15 03:06:20;;;;;;;30.45;20.90;;;;;;;7.85;100.00;102671.38;3609916;39;20066;-63
2023/12/15 03:08:46;;;;;;;31.00;21.15;;;;;;;7.80;100.00;102668.78;3614072;39;20065;-63
2023/12/15 03:11:12;;;;;;;33.60;21.85;;;;;;;7.86;100.00;102675.78;3610303;39;20055;-63
2023/12/15 03:13:38;;;;;;;32.55;21.05;;;;;;;7.87;100.00;102674.91;3610817;39;20066;-64
2023/12/15 03:16:10;;;;;;;30.42;21.58;;;;;;;7.88;100.00;102685.56;3610190;39;20051;-66
2023/12/15 03:18:37;;;;;;;35.70;22.60;;;;;;;7.90;100.00;102677.50;3609346;39;20049;-65
2023/12/15 03:21:03;;;;;;;32.78;21.15;;;;;;;7.91;100.00;102684.63;3604856;39;20059;-64
2023/12/15 03:23:29;;;;;;;37.25;22.55;;;;;;;7.93;100.00;102692.59;3598950;39;20059;-64
2023/12/15 03:25:55;;;;;;;33.28;22.08;;;;;;;7.94;100.00;102700.63;3609816;39;20347;-65
2023/12/15 03:28:20;;;;;;;36.72;23.35;;;;;;;7.93;100.00;102703.31;3615489;39;20079;-63
2023/12/15 03:30:46;;;;;;;36.00;22.73;;;;;;;7.94;100.00;102703.31;3612818;39;20059;-63
2023/12/15 03:33:12;;;;;;;37.58;23.17;;;;;;;7.94;100.00;102710.47;3607806;39;20051;-64
2023/12/15 03:35:37;;;;;;;34.53;22.85;;;;;;;7.96;100.00;102717.56;3610029;39;20055;-64
2023/12/15 03:38:05;;;;;;;39.40;24.23;;;;;;;7.96;100.00;102719.31;3611351;39;20248;-63
2023/12/15 03:40:30;;;;;;;38.28;23.48;;;;;;;7.97;100.00;102722.00;3608037;39;20113;-64
2023/12/15 03:42:56;;;;;;;33.97;22.92;;;;;;;7.98;100.00;102726.41;3607102;39;20055;-63
2023/12/15 03:45:23;;;;;;;39.97;23.35;;;;;;;7.99;100.00;102720.16;3597159;39;20048;-62
2023/12/15 03:47:51;;;;;;;41.72;25.20;;;;;;;7.99;100.00;102729.97;3606729;39;20077;-63
2023/12/15 03:50:16;;;;;;;39.88;24.48;;;;;;;8.00;100.00;102729.09;3607719;39;20080;-63
2023/12/15 03:52:42;;;;;;;40.55;24.90;;;;;;;8.01;100.00;102729.03;3606733;39;20060;-62
2023/12/15 03:55:08;;;;;;;39.28;24.65;;;;;;;7.93;100.00;102714.03;3607832;39;20063;-63
2023/12/15 03:57:34;;;;;;;39.50;23.58;;;;;;;7.99;100.00;102725.53;3606613;39;21441;-63
2023/12/15 03:59:59;;;;;;;42.10;25.17;;;;;;;8.05;100.00;102730.72;3607767;39;20071;-64
2023/12/15 04:02:25;;;;;;;41.40;24.67;;;;;;;8.07;100.00;102736.94;3604451;39;20058;-63
2023/12/15 04:04:51;;;;;;;40.03;25.50;;;;;;;8.08;100.00;102735.16;3610594;39;20394;-64
2023/12/15 04:07:16;;;;;;;47.00;26.20;;;;;;;7.89;100.00;102708.75;3608351;39;20063;-63
2023/12/15 04:09:42;;;;;;;46.75;26.48;;;;;;;8.08;100.00;102736.03;3607456;39;20054;-64
2023/12/15 04:12:08;;;;;;;43.17;26.20;;;;;;;8.08;100.00;102746.72;3606270;39;20124;-63
2023/12/15 04:14:34;;;;;;;45.80;26.23;;;;;;;7.94;100.00;102724.72;3607796;39;20071;-63
2023/12/15 04:17:00;;;;;;;46.28;26.92;;;;;;;8.03;100.00;102737.06;3607178;39;20059;-64
2023/12/15 04:19:26;;;;;;;54.17;28.77;;;;;;;8.11;100.00;102749.34;3608702;39;20334;-64
2023/12/15 04:21:52;;;;;;;47.40;27.80;;;;;;;8.12;100.00;102750.25;3609921;39;20358;-61
2023/12/15 04:24:18;;;;;;;48.03;28.45;;;;;;;8.07;100.00;102739.63;3608607;39;20055;-65
2023/12/15 04:26:44;;;;;;;51.03;27.63;;;;;;;8.11;100.00;102744.00;3600588;39;20074;-63
2023/12/15 04:29:10;;;;;;;54.45;29.35;;;;;;;8.16;100.00;102753.75;3607136;39;20047;-64
2023/12/15 04:31:36;;;;;;;52.88;28.98;;;;;;;8.18;100.00;102766.19;3607421;39;20135;-64
2023/12/15 04:34:01;;;;;;;49.70;28.58;;;;;;;8.20;100.00;102761.69;3608848;39;20299;-62
2023/12/15 04:36:27;;;;;;;51.40;28.83;;;;;;;8.21;100.00;102762.56;3606704;39;20318;-63
2023/12/15 04:38:53;;;;;;;57.00;30.58;;;;;;;8.22;100.00;102775.06;3605225;39;20051;-64
2023/12/15 04:41:24;;;;;;;62.50;30.35;;;;;;;8.22;100.00;102769.72;3607002;39;20055;-64
2023/12/15 04:43:50;;;;;;;58.33;29.63;;;;;;;7.93;100.00;102727.41;3607025;39;20381;-63
2023/12/15 04:46:28;;;;;;;53.42;30.80;;;;;;;8.24;100.00;102774.09;3606301;39;20066;-63
2023/12/15 04:48:59;;;;;;;57.08;30.25;;;;;;;8.13;100.00;102755.56;3608872;39;20132;-63
2023/12/15 04:51:25;;;;;;;54.65;29.88;;;;;;;8.24;100.00;102771.41;3607074;39;20549;-63
2023/12/15 04:53:51;;;;;;;55.17;28.67;;;;;;;7.98;100.00;102729.09;3606511;39;20048;-63
2023/12/15 04:56:17;;;;;;;56.00;29.52;;;;;;;8.28;100.00;102772.25;3608126;39;20313;-61
2023/12/15 04:58:44;;;;;;;56.03;29.13;;;;;;;8.29;100.00;102784.72;3605314;39;20054;-64
2023/12/15 05:01:14;;;;;;;50.25;29.42;;;;;;;8.31;100.00;102802.53;3608238;39;20055;-63
2023/12/15 05:03:44;;;;;;;54.53;29.42;;;;;;;8.31;100.00;102799.00;3608111;39;20070;-64
2023/12/15 05:06:20;;;;;;;59.70;31.05;;;;;;;8.31;100.00;102793.63;3609564;39;20364;-63
2023/12/15 05:08:53;;;;;;;58.78;30.55;;;;;;;8.33;100.00;102794.47;3611602;39;20383;-62
2023/12/15 05:11:19;;;;;;;56.22;30.92;;;;;;;8.35;100.00;102798.00;3606366;39;20054;-61
2023/12/15 05:13:45;;;;;;;55.03;30.63;;;;;;;8.35;100.00;102790.84;3611090;39;20114;-61
2023/12/15 05:16:11;;;;;;;60.47;31.85;;;;;;;8.29;100.00;102785.59;3608188;39;20067;-65
2023/12/15 05:18:37;;;;;;;59.58;33.03;;;;;;;8.37;100.00;102790.78;3600499;39;20062;-64
2023/12/15 05:21:05;;;;;;;59.35;31.00;;;;;;;8.34;100.00;102790.84;3605398;39;20407;-63
2023/12/15 05:23:30;;;;;;;54.35;30.60;;;;;;;8.31;100.00;102788.28;3607485;39;20059;-63
2023/12/15 05:25:56;;;;;;;61.67;32.22;;;;;;;8.37;100.00;102810.47;3605386;39;20414;-63
2023/12/15 05:28:21;;;;;;;56.22;31.42;;;;;;;8.41;100.00;102821.16;3606658;39;20047;-62
2023/12/15 05:30:47;;;;;;;57.15;31.67;;;;;;;8.40;100.00;102816.69;3608641;39;20062;-64
2023/12/15 05:33:13;;;;;;;62.80;32.50;;;;;;;8.40;100.00;102817.56;3604977;39;20047;-63
2023/12/15 05:35:39;;;;;;;70.93;35.97;;;;;;;8.41;100.00;102822.03;3605229;39;20058;-63
2023/12/15 05:38:04;;;;;;;61.95;32.97;;;;;;;7.73;100.00;102725.16;3605334;39;20395;-64
2023/12/15 05:40:30;;;;;;;67.45;35.00;;;;;;;8.43;100.00;102830.91;3606523;39;20280;-62
2023/12/15 05:42:56;;;;;;;72.43;36.67;;;;;;;8.43;100.00;102832.69;3608590;39;20055;-64
2023/12/15 05:45:22;;;;;;;70.18;34.60;;;;;;;8.46;100.00;102838.88;3606378;39;20059;-61
2023/12/15 05:47:48;;;;;;;69.57;35.72;;;;;;;8.45;100.00;102837.13;3603198;39;20055;-61
2023/12/15 05:50:15;;;;;;;64.57;35.08;;;;;;;8.22;100.00;102817.94;3604553;39;20063;-63
2023/12/15 05:52:41;;;;;;;73.82;36.17;;;;;;;8.48;100.00;102863.88;3604391;39;20070;-63
2023/12/15 05:55:07;;;;;;;69.97;35.70;;;;;;;8.40;100.00;102851.53;3603500;39;20082;-62
2023/12/15 05:57:33;;;;;;;68.72;37.63;;;;;;;8.48;100.00;102863.88;3604158;39;20055;-63
2023/12/15 05:59:58;;;;;;;73.57;38.22;;;;;;;8.48;100.00;102863.88;3605073;39;20296;-64
2023/12/15 06:02:24;;;;;;;65.07;35.53;;;;;;;8.48;100.00;102853.13;3608319;39;20085;-63
2023/12/15 06:04:49;;;;;;;73.85;38.63;;;;;;;8.50;100.00;102851.31;3605167;39;20039;-64
2023/12/15 06:07:15;;;;;;;79.63;38.00;;;;;;;8.37;100.00;102813.13;3604908;39;20306;-64
2023/12/15 06:09:42;;;;;;;74.20;37.58;;;;;;;8.53;100.00;102845.00;3604425;39;20132;-64
2023/12/15 06:12:09;;;;;;;75.20;38.95;;;;;;;8.53;100.00;102836.94;3603822;39;20064;-62
2023/12/15 06:14:37;;;;;;;79.88;37.90;;;;;;;8.53;100.00;102828.91;3606783;39;20053;-63
2023/12/15 06:17:07;;;;;;;74.78;39.00;;;;;;;8.51;100.00;102837.00;3606030;39;20052;-64
2023/12/15 06:19:37;;;;;;;72.95;39.08;;;;;;;8.53;100.00;102839.63;3602854;39;20091;-63
2023/12/15 06:22:03;;;;;;;72.82;38.95;;;;;;;8.55;100.00;102845.84;3603696;39;20375;-63
2023/12/15 06:24:29;;;;;;;69.32;38.92;;;;;;;8.56;100.00;102855.66;3607037;39;20057;-63
2023/12/15 06:26:54;;;;;;;80.45;39.42;;;;;;;8.56;100.00;102869.97;3608412;39;20043;-63
2023/12/15 06:29:20;;;;;;;77.57;40.25;;;;;;;8.57;100.00;102862.78;3605159;39;20058;-65
2023/12/15 06:31:47;;;;;;;81.95;40.88;;;;;;;8.56;100.00;102867.28;3605969;39;20161;-64
2023/12/15 06:34:13;;;;;;;79.25;40.83;;;;;;;8.57;100.00;102869.03;3605757;39;20150;-64
2023/12/15 06:36:39;;;;;;;72.63;39.40;;;;;;;8.58;100.00;102886.88;3608967;39;20070;-64
2023/12/15 06:39:05;;;;;;;70.40;39.70;;;;;;;8.60;100.00;102884.19;3611313;39;20051;-61
2023/12/15 06:41:31;;;;;;;77.00;39.30;;;;;;;8.60;100.00;102885.06;3609399;39;20063;-63
2023/12/15 06:43:56;;;;;;;73.47;39.70;;;;;;;8.62;100.00;102886.81;3604555;39;20659;-62
2023/12/15 06:46:22;;;;;;;72.18;39.25;;;;;;;8.63;100.00;102884.13;3605066;39;20058;-62
2023/12/15 06:48:48;;;;;;;75.80;39.88;;;;;;;8.64;100.00;102880.50;3605567;39;20062;-62
2023/12/15 06:51:14;;;;;;;74.80;40.60;;;;;;;8.67;100.00;102884.94;3605367;39;20058;-62
2023/12/15 06:53:40;;;;;;;74.68;41.65;;;;;;;8.68;100.00;102892.06;3605584;39;20405;-62
2023/12/15 06:56:06;;;;;;;76.78;39.42;;;;;;;8.69;100.00;102894.72;3605696;39;20321;-62
2023/12/15 06:58:32;;;;;;;76.75;41.95;;;;;;;8.67;100.00;102895.66;3604895;39;20062;-64
2023/12/15 07:00:58;;;;;;;75.90;39.95;;;;;;;8.63;100.00;102888.56;3602692;39;20055;-64
2023/12/15 07:03:24;;;;;;;68.60;38.70;;;;;;;8.70;100.00;102909.88;3603619;39;21351;-61
2023/12/15 07:05:49;;;;;;;73.43;40.42;;;;;;;8.72;100.00;102915.19;3605174;39;20344;-63
2023/12/15 07:08:15;;;;;;;76.85;40.92;;;;;;;8.73;100.00;102923.22;3606070;39;20065;-63
2023/12/15 07:10:41;;;;;;;69.50;39.35;;;;;;;8.75;100.00;102920.50;3604082;39;20098;-64
2023/12/15 07:13:07;;;;;;;74.55;40.22;;;;;;;8.75;100.00;102929.44;3605117;39;20043;-63
2023/12/15 07:15:33;;;;;;;72.28;40.38;;;;;;;8.76;100.00;102933.00;3605504;39;20311;-63
2023/12/15 07:17:59;;;;;;;75.43;39.72;;;;;;;8.56;100.00;102898.53;3605329;39;20135;-63
2023/12/15 07:20:25;;;;;;;70.15;38.58;;;;;;;8.76;100.00;102935.69;3605212;39;20084;-63
2023/12/15 07:22:51;;;;;;;72.38;40.30;;;;;;;8.75;100.00;102940.19;3609123;39;20035;-63
2023/12/15 07:25:18;;;;;;;76.15;37.58;;;;;;;8.69;100.00;102931.34;3607095;39;20061;-64
2023/12/15 07:27:44;;;;;;;78.35;40.90;;;;;;;8.75;100.00;102942.84;3604159;39;20047;-63
2023/12/15 07:30:10;;;;;;;76.82;38.17;;;;;;;8.75;100.00;102952.69;3604864;39;20067;-63
2023/12/15 07:32:36;;;;;;;76.97;38.92;;;;;;;8.75;100.00;102963.41;3605270;39;20046;-63
2023/12/15 07:35:03;;;;;;;74.18;40.38;;;;;;;8.76;100.00;102959.81;3606163;39;20065;-63
2023/12/15 07:37:29;;;;;;;81.68;40.00;;;;;;;8.76;100.00;102954.47;3605159;39;20120;-64
2023/12/15 07:39:55;;;;;;;81.65;38.90;;;;;;;8.75;100.00;102952.69;3607213;39;20091;-64
2023/12/15 07:42:20;;;;;;;77.03;39.97;;;;;;;8.77;100.00;102972.31;3595388;39;20053;-63
2023/12/15 07:44:46;;;;;;;76.95;40.35;;;;;;;8.49;100.00;102929.94;3604893;39;20081;-62
2023/12/15 07:47:11;;;;;;;80.20;39.83;;;;;;;8.78;100.00;102974.06;3605268;39;20055;-64
2023/12/15 07:49:37;;;;;;;74.88;39.95;;;;;;;8.78;100.00;102972.25;3605832;39;20054;-63
2023/12/15 07:52:03;;;;;;;75.25;38.60;;;;;;;8.79;100.00;102962.44;3606863;39;20106;-63
2023/12/15 07:54:29;;;;;;;75.88;39.05;;;;;;;8.79;100.00;102973.19;3604531;39;20067;-63
2023/12/15 07:56:56;;;;;;;82.22;38.97;;;;;;;8.78;100.00;102968.69;3604259;39;20384;-64
2023/12/15 07:59:22;;;;;;;70.22;37.63;;;;;;;8.80;100.00;102977.63;3605432;39;20051;-64
2023/12/15 08:01:54;;;;;;;82.90;40.45;;;;;;;8.77;100.00;102983.03;3604572;39;20344;-63
2023/12/15 08:04:21;;;;;;;83.72;41.75;;;;;;;8.68;100.00;102962.63;3606364;39;20043;-64
2023/12/15 08:06:47;;;;;;;75.35;39.15;;;;;;;8.75;100.00;102974.13;3606937;39;20074;-65
2023/12/15 08:09:12;;;;;;;75.68;39.50;;;;;;;8.80;100.00;102988.34;3607368;39;20039;-64
2023/12/15 08:11:38;;;;;;;75.55;39.45;;;;;;;8.81;100.00;102996.34;3608211;39;20051;-63
2023/12/15 08:14:04;;;;;;;71.35;38.63;;;;;;;8.80;100.00;102993.69;3607106;39;20047;-63
2023/12/15 08:16:30;;;;;;;72.72;37.42;;;;;;;8.54;100.00;102962.91;3608773;39;20059;-64
2023/12/15 08:18:57;;;;;;;74.90;38.28;;;;;;;8.84;100.00;103011.50;3609505;39;20061;-64
2023/12/15 08:21:23;;;;;;;75.15;37.30;;;;;;;8.83;100.00;103015.09;3607630;39;20324;-63
2023/12/15 08:23:49;;;;;;;70.63;37.08;;;;;;;8.81;100.00;103023.16;3605725;39;20067;-64
2023/12/15 08:26:27;;;;;;;72.55;38.20;;;;;;;8.84;100.00;103024.91;3606284;39;20056;-64
2023/12/15 08:28:56;;;;;;;67.75;36.22;;;;;;;8.80;100.00;103018.72;3606784;39;20055;-64
2023/12/15 08:31:23;;;;;;;65.85;35.83;;;;;;;8.84;100.00;103033.81;3605734;39;20063;-63
2023/12/15 08:33:51;;;;;;;67.60;36.75;;;;;;;8.86;100.00;103038.28;3609291;39;20088;-64
2023/12/15 08:36:17;;;;;;;66.70;36.83;;;;;;;8.85;100.00;103037.41;3607323;39;20100;-63
2023/12/15 08:38:42;;;;;;;62.67;34.00;;;;;;;8.86;100.00;103041.84;3607922;39;20066;-63
2023/12/15 08:41:08;;;;;;;65.90;35.65;;;;;;;8.83;100.00;103049.97;3607318;39;20048;-63
2023/12/15 08:43:35;;;;;;;67.30;35.75;;;;;;;8.89;100.00;103062.38;3608869;39;20256;-63
2023/12/15 08:46:01;;;;;;;65.68;34.42;;;;;;;8.90;100.00;103069.50;3609316;39;20058;-64
2023/12/15 08:48:26;;;;;;;63.35;34.67;;;;;;;8.95;100.00;103079.25;3609277;39;20047;-62
2023/12/15 08:50:53;;;;;;;66.72;35.30;;;;;;;8.97;100.00;103077.38;3608381;39;20051;-64
2023/12/15 08:53:18;;;;;;;58.40;33.78;;;;;;;8.97;100.00;103085.44;3610030;39;20391;-64
2023/12/15 08:55:49;;;;;;;64.85;34.70;;;;;;;8.98;100.00;103095.28;3607900;39;20058;-64
2023/12/15 08:58:15;;;;;;;60.17;33.70;;;;;;;9.01;100.00;103095.22;3609296;39;20039;-64
2023/12/15 09:00:40;;;;;;;59.35;34.65;;;;;;;9.02;100.00;103096.97;3608400;39;20119;-64
2023/12/15 09:03:07;;;;;;;62.97;32.97;;;;;;;9.03;100.00;103093.38;3606241;39;20059;-64
2023/12/15 09:05:34;;;;;;;58.92;33.45;;;;;;;9.06;100.00;103098.69;3606135;39;20063;-65
2023/12/15 09:08:00;;;;;;;58.40;34.22;;;;;;;9.04;100.00;103094.28;3606064;39;20067;-63
2023/12/15 09:10:33;;;;;;;67.75;35.40;;;;;;;9.09;100.00;103094.19;3607640;39;20063;-63
2023/12/15 09:13:02;;;;;;;63.10;34.15;;;;;;;9.10;100.00;103088.78;3609129;39;20059;-63
2023/12/15 09:15:31;;;;;;;61.50;33.53;;;;;;;9.14;100.00;103095.00;3609013;39;20056;-63
2023/12/15 09:17:57;;;;;;;59.28;33.67;;;;;;;9.13;100.00;103096.75;3606175;39;20055;-62
2023/12/15 09:20:24;;;;;;;56.67;31.38;;;;;;;9.13;100.00;103093.19;3607904;39;20311;-64
2023/12/15 09:22:50;;;;;;;58.03;31.33;;;;;;;9.10;100.00;103096.81;3605284;39;20111;-63
2023/12/15 09:25:16;;;;;;;57.58;30.55;;;;;;;9.14;100.00;103116.47;3608662;39;20063;-63
2023/12/15 09:27:41;;;;;;;55.35;30.75;;;;;;;9.15;99.86;103126.25;3607398;39;20413;-62
2023/12/15 09:30:07;;;;;;;54.45;31.70;;;;;;;9.15;100.00;103123.59;3611049;39;20065;-63
2023/12/15 09:32:33;;;;;;;58.33;32.33;;;;;;;9.15;100.00;103124.47;3609768;39;20109;-64
2023/12/15 09:34:59;;;;;;;62.50;32.53;;;;;;;9.19;100.00;103130.66;3605842;39;20399;-64
2023/12/15 09:37:24;;;;;;;54.30;31.25;;;;;;;9.21;99.84;103136.88;3607803;39;20057;-63
2023/12/15 09:39:50;;;;;;;52.17;30.27;;;;;;;9.20;100.00;103135.13;3607058;39;20179;-65
2023/12/15 09:42:16;;;;;;;55.35;32.75;;;;;;;9.20;99.97;103143.19;3608477;39;20051;-64
2023/12/15 09:44:42;;;;;;;57.05;32.33;;;;;;;9.24;100.00;103155.63;3595211;39;20475;-64
2023/12/15 09:47:09;;;;;;;54.63;30.67;;;;;;;9.21;99.24;103152.97;3607031;39;20060;-64
2023/12/15 09:49:39;;;;;;;55.53;30.73;;;;;;;9.24;99.65;103161.88;3608798;39;20050;-63
2023/12/15 09:52:07;;;;;;;51.20;30.00;;;;;;;9.24;99.09;103177.09;3610287;39;20394;-64
2023/12/15 09:54:34;;;;;;;49.58;29.45;;;;;;;9.24;99.19;103177.09;3607230;39;20280;-63
2023/12/15 09:57:00;;;;;;;56.90;29.95;;;;;;;9.16;99.09;103169.16;3607385;39;20055;-63
2023/12/15 09:59:26;;;;;;;54.17;28.23;;;;;;;9.09;98.90;103158.56;3611148;39;20317;-64
2023/12/15 10:01:52;;;;;;;51.15;28.92;;;;;;;9.25;98.73;103190.47;3606981;39;20289;-64
2023/12/15 10:04:18;;;;;;;49.67;28.88;;;;;;;9.27;98.74;103193.13;3608373;39;20047;-63
2023/12/15 10:06:46;;;;;;;44.85;27.52;;;;;;;9.29;98.85;103186.81;3608311;39;20399;-63
2023/12/15 10:09:15;;;;;;;45.78;26.83;;;;;;;9.30;99.02;103195.75;3607489;39;20387;-64
2023/12/15 10:11:44;;;;;;;45.65;28.20;;;;;;;9.30;98.81;103201.13;3607497;39;20124;-64
2023/12/15 10:14:11;;;;;;;46.42;27.75;;;;;;;9.28;98.75;103194.88;3610590;39;20051;-63
2023/12/15 10:16:38;;;;;;;43.22;27.45;;;;;;;9.29;98.03;103208.31;3608452;39;20051;-63
2023/12/15 10:19:07;;;;;;;49.20;26.05;;;;;;;9.29;97.96;103208.31;3607434;39;20051;-65
2023/12/15 10:21:36;;;;;;;42.83;26.25;;;;;;;9.29;97.70;103218.13;3607882;39;20050;-64
2023/12/15 10:24:22;;;;;;;46.47;25.52;;;;;;;9.29;97.78;103207.38;3609190;39;20131;-64
2023/12/15 10:26:48;;;;;;;43.03;25.60;;;;;;;9.33;98.11;103218.97;3605701;39;20053;-62
2023/12/15 10:29:18;;;;;;;42.72;25.90;;;;;;;9.34;98.51;103227.00;3607310;39;20487;-63
2023/12/15 10:31:44;;;;;;;40.75;25.55;;;;;;;9.39;98.58;103234.97;3605871;39;20116;-63
2023/12/15 10:34:10;;;;;;;42.15;26.00;;;;;;;9.40;98.38;103234.94;3607951;39;20060;-63
2023/12/15 10:36:44;;;;;;;40.38;25.10;;;;;;;9.41;97.78;103239.38;3608040;39;20075;-63
2023/12/15 10:39:12;;;;;;;42.22;24.98;;;;;;;9.43;97.81;103248.31;3607850;39;20054;-64
2023/12/15 10:41:40;;;;;;;42.38;25.00;;;;;;;9.47;97.49;103251.81;3606914;39;20339;-64
2023/12/15 10:44:07;;;;;;;42.10;25.05;;;;;;;9.48;97.57;103251.81;3596468;39;20362;-64
2023/12/15 10:46:37;;;;;;;42.60;24.25;;;;;;;9.50;96.86;103255.31;3603531;39;20061;-63
2023/12/15 10:49:06;;;;;;;42.03;23.30;;;;;;;9.53;96.82;103260.63;3607849;39;20039;-62
2023/12/15 10:51:34;;;;;;;40.40;23.67;;;;;;;9.53;97.20;103254.38;3607470;39;20058;-64
2023/12/15 10:54:02;;;;;;;43.72;23.80;;;;;;;9.57;96.99;103264.16;3608618;39;20115;-63
2023/12/15 10:56:28;;;;;;;42.65;23.13;;;;;;;9.61;97.07;103273.03;3607493;39;20379;-63
2023/12/15 10:58:54;;;;;;;36.55;22.10;;;;;;;9.35;96.18;103222.50;3605937;39;20144;-63
2023/12/15 11:01:23;;;;;;;37.03;22.25;;;;;;;9.65;96.63;103274.75;3604850;39;20091;-64
2023/12/15 11:03:49;;;;;;;37.00;21.65;;;;;;;9.69;96.04;103281.84;3605560;39;20058;-64
2023/12/15 11:06:31;;;;;;;33.05;20.73;;;;;;;9.69;94.81;103292.59;3606174;39;20055;-63
2023/12/15 11:09:01;;;;;;;38.83;20.20;;;;;;;9.68;95.07;103301.56;3604979;39;20096;-64